COMPANY RECORD · AUSTIN, TX

Ironwood Plumbing — permit history in Austin, TX

Ironwood Plumbing appears on 121 Austin permit records from 2022 through 2026, all of them plumbing.

Permit categories

CategoryPermitsShare
Plumbing121100%

Activity by year

YearPermits issued
20221
202336
202483
20261

Busiest year on record: 2024, with 83 permits. One project can account for several filings, so read this as filing activity rather than workload.

Named on the same permit

Name in sourceLinked permitsLast seen
Jamail & Smith Construction82024-03-06
Desert Construction LLC52023-10-04
Ark General Construction12024-04-23
Kinetic Builders Corp12024-04-18
Rsvc Company12024-01-23
Select Building Systems, Inc. DBA Sbs Construction *Main12024-04-18

6 companies are named alongside Ironwood Plumbing on the same Austin permit. A shared permit is a documented co-appearance, not proof of a current contract. Names appear as the authority published them.

Where they worked

Address in sourceMost recent permit
900 S LAMAR BLVD2026-01-06
512 POWELL CIR2024-12-31
1208 KAREN AVE2024-12-26
3309 LARRY LN2024-12-02
1822 TREADWELL ST2024-11-25
2805 MOUNTAIN LAUREL DR2024-11-25
2105 ANN ARBOR AVE2024-11-19
2004 ALGUNO RD2024-11-19
1417 KRAMER LN2024-11-18
802 MAUDE ST2024-10-09
3702 TOWER VIEW CT2024-10-02
1213 KAREN AVE2024-09-27
1304 ANGELINA ST2024-09-27
1609 CANTERBURY ST2024-09-27

112 distinct addresses on record; the 14 most recent are shown. Addresses appear as the authority published them. A permit is a filing at an address, not a completed job there.

Permits on record

121 permits; open the 50 most recent
PermitIssuedCategoryAddress in sourceScope as filedDeclared value
2026-000534 PP2026-01-06Plumbing900 S LAMAR BLVD
2024-167666 PP2024-12-31Plumbing512 POWELL CIR
2024-151354 PP2024-12-26Plumbing1208 KAREN AVE
2024-151430 PP2024-12-02Plumbing3309 LARRY LN
2022-054198 PP2024-11-25Plumbing1822 TREADWELL ST
2024-106738 PP2024-11-25Plumbing2805 MOUNTAIN LAUREL DR
2024-151884 PP2024-11-19Plumbing2105 ANN ARBOR AVE
2024-153536 PP2024-11-19Plumbing2004 ALGUNO RD
18-012052 PP2024-11-18Plumbing1417 KRAMER LN
2024-135062 PP2024-10-09Plumbing802 MAUDE ST
2024-133459 PP2024-10-02Plumbing3702 TOWER VIEW CT
2024-130618 PP2024-09-27Plumbing1213 KAREN AVE
2024-131344 PP2024-09-27Plumbing1304 ANGELINA ST
2024-131437 PP2024-09-27Plumbing1609 CANTERBURY ST
2024-130430 PP2024-09-27Plumbing1901 W ST JOHNS AVE
2024-128009 PP2024-09-24Plumbing3702 TOWER VIEW CT BLDG 2
2024-127481 PP2024-09-20Plumbing4302 S US 183 HWY SB
2024-109234 PP2024-09-19Plumbing4801 SARA DR
2024-126653 PP2024-09-18Plumbing4508 EDGEMONT DR
2024-125196 PP2024-09-18Plumbing5104 STONE GATE DR
2024-125883 PP2024-09-17Plumbing917 SHADY LN
2024-123598 PP2024-09-12Plumbing806 VALDEZ ST
2024-123614 PP2024-09-11Plumbing3701 STEVENSON AVE
2023-161986 PP2024-08-27Plumbing2315 BOWMAN AVE
2024-082010 PP2024-08-13Plumbing1703 MADISON AVE
2024-083563 PP2024-08-12Plumbing1708 ALGUNO RD
2024-089955 PP2024-07-28Plumbing4707 DEPEW AVE
2024-089945 PP2024-07-28Plumbing4709 DEPEW AVE
2024-061338 PP2024-07-09Plumbing2111 ANN ARBOR AVE
2024-080930 PP2024-06-27Plumbing1404 GARDEN ST
2024-075785 PP2024-06-25Plumbing613 WILMES DR
2024-079582 PP2024-06-25Plumbing10150 E US 290 HWY SVRD WB
2024-077691 PP2024-06-20Plumbing6908 PRISCILLA DR
2024-069419 PP2024-06-13Plumbing4711 DEPEW AVE
2024-062466 PP2024-06-11Plumbing5503 AVENUE H
2024-025416 PP2024-06-05Plumbing1001 JEWELL ST
2024-065659 PP2024-05-30Plumbing2708 BOWMAN AVE
2023-160643 PP2024-05-29Plumbing4414 S 1ST ST
2023-160646 PP2024-05-29Plumbing4416 S 1ST ST
2024-045574 PP2024-05-24Plumbing2013 HOLLAND AVE
2024-049706 PP2024-05-13Plumbing4402 GARNETT ST
2023-128993 PP2024-05-07Plumbing404 W CROSLIN ST
2024-053683 PP2024-05-07Plumbing1705 E 13TH ST
2024-045922 PP2024-05-06Plumbing205 PECAN DR
2024-047185 PP2024-05-06Plumbing906 MANSELL AVE
2024-053557 PP2024-05-06Plumbing5507 CLAY AVE
2024-053405 PP2024-05-06Plumbing5704 SUSIE CT
2024-005922 PP2024-04-29Plumbing505 PHILCO DR
2024-042576 PP2024-04-25Plumbing7301 N LAMAR BLVD
2024-040321 PP2024-04-25Plumbing7209 N LAMAR BLVD

Fields appear as the issuing authority published them, including spelling and blanks. Scope text is the applicant's description of intended work, not an inspection finding.

Source and limits

Public Austin permit records through 2026, counted by distinct permit number. This is a historical filing record: it cannot show current backlog, pricing, crew availability, licensing or insurance, and a quiet period may only mean work was filed elsewhere. Confirm anything commercial with the company and with the issuing authority before acting. How we build these records, and what we withhold →